sensor_id;sensor_type;location;lat;lon;timestamp;P1;durP1;ratioP1;P2;durP2;ratioP2
68680;SDS011;55836;49.858;6.756;2023-04-15T00:01:20;3.80;;;1.57;;
68680;SDS011;55836;49.858;6.756;2023-04-15T00:03:46;2.73;;;1.60;;
68680;SDS011;55836;49.858;6.756;2023-04-15T00:06:12;3.03;;;1.60;;
68680;SDS011;55836;49.858;6.756;2023-04-15T00:08:38;3.40;;;1.60;;
68680;SDS011;55836;49.858;6.756;2023-04-15T00:11:04;3.97;;;1.47;;
68680;SDS011;55836;49.858;6.756;2023-04-15T00:13:31;3.60;;;1.90;;
68680;SDS011;55836;49.858;6.756;2023-04-15T00:15:58;4.13;;;1.73;;
68680;SDS011;55836;49.858;6.756;2023-04-15T00:18:24;2.23;;;1.70;;
68680;SDS011;55836;49.858;6.756;2023-04-15T00:20:50;3.67;;;2.00;;
68680;SDS011;55836;49.858;6.756;2023-04-15T00:23:17;3.53;;;1.47;;
68680;SDS011;55836;49.858;6.756;2023-04-15T00:25:43;4.30;;;1.40;;
68680;SDS011;55836;49.858;6.756;2023-04-15T00:28:09;2.50;;;1.40;;
68680;SDS011;55836;49.858;6.756;2023-04-15T00:30:35;2.13;;;1.63;;
68680;SDS011;55836;49.858;6.756;2023-04-15T00:33:02;5.00;;;1.60;;
68680;SDS011;55836;49.858;6.756;2023-04-15T00:35:28;2.73;;;1.70;;
68680;SDS011;55836;49.858;6.756;2023-04-15T00:37:56;4.30;;;1.40;;
68680;SDS011;55836;49.858;6.756;2023-04-15T00:40:23;1.83;;;1.47;;
68680;SDS011;55836;49.858;6.756;2023-04-15T00:42:50;6.53;;;1.67;;
68680;SDS011;55836;49.858;6.756;2023-04-15T00:45:16;3.67;;;1.70;;
68680;SDS011;55836;49.858;6.756;2023-04-15T00:47:43;4.37;;;1.50;;
68680;SDS011;55836;49.858;6.756;2023-04-15T00:50:10;8.50;;;2.60;;
68680;SDS011;55836;49.858;6.756;2023-04-15T00:52:36;2.63;;;1.47;;
68680;SDS011;55836;49.858;6.756;2023-04-15T00:55:03;1.97;;;1.40;;
68680;SDS011;55836;49.858;6.756;2023-04-15T00:57:29;3.10;;;1.80;;
68680;SDS011;55836;49.858;6.756;2023-04-15T00:59:55;3.60;;;1.83;;
68680;SDS011;55836;49.858;6.756;2023-04-15T01:02:22;5.30;;;1.50;;
68680;SDS011;55836;49.858;6.756;2023-04-15T01:04:48;4.40;;;1.43;;
68680;SDS011;55836;49.858;6.756;2023-04-15T01:07:14;1.70;;;1.40;;
68680;SDS011;55836;49.858;6.756;2023-04-15T01:09:41;3.17;;;1.90;;
68680;SDS011;55836;49.858;6.756;2023-04-15T01:12:09;1.70;;;1.20;;
68680;SDS011;55836;49.858;6.756;2023-04-15T01:14:36;2.97;;;1.70;;
68680;SDS011;55836;49.858;6.756;2023-04-15T01:17:02;5.50;;;1.87;;
68680;SDS011;55836;49.858;6.756;2023-04-15T01:19:28;7.67;;;3.03;;
68680;SDS011;55836;49.858;6.756;2023-04-15T01:21:55;5.53;;;3.53;;
68680;SDS011;55836;49.858;6.756;2023-04-15T01:24:21;5.17;;;3.20;;
68680;SDS011;55836;49.858;6.756;2023-04-15T01:26:47;6.03;;;3.20;;
68680;SDS011;55836;49.858;6.756;2023-04-15T01:29:14;5.77;;;3.43;;
68680;SDS011;55836;49.858;6.756;2023-04-15T01:31:40;4.30;;;3.30;;
68680;SDS011;55836;49.858;6.756;2023-04-15T01:34:07;11.17;;;3.87;;
68680;SDS011;55836;49.858;6.756;2023-04-15T01:36:33;6.67;;;3.17;;
68680;SDS011;55836;49.858;6.756;2023-04-15T01:38:59;4.03;;;2.43;;
68680;SDS011;55836;49.858;6.756;2023-04-15T01:41:25;3.33;;;2.27;;
68680;SDS011;55836;49.858;6.756;2023-04-15T01:43:52;6.80;;;2.43;;
68680;SDS011;55836;49.858;6.756;2023-04-15T01:46:18;5.73;;;2.20;;
68680;SDS011;55836;49.858;6.756;2023-04-15T01:48:44;3.17;;;2.00;;
68680;SDS011;55836;49.858;6.756;2023-04-15T01:51:10;3.27;;;2.13;;
68680;SDS011;55836;49.858;6.756;2023-04-15T01:53:36;2.77;;;2.00;;
68680;SDS011;55836;49.858;6.756;2023-04-15T01:56:02;3.10;;;1.63;;
68680;SDS011;55836;49.858;6.756;2023-04-15T01:58:29;2.93;;;1.80;;
68680;SDS011;55836;49.858;6.756;2023-04-15T02:00:55;2.77;;;2.00;;
68680;SDS011;55836;49.858;6.756;2023-04-15T02:03:21;3.10;;;2.13;;
68680;SDS011;55836;49.858;6.756;2023-04-15T02:05:47;5.67;;;2.17;;
68680;SDS011;55836;49.858;6.756;2023-04-15T02:08:15;5.23;;;2.27;;
68680;SDS011;55836;49.858;6.756;2023-04-15T02:10:41;4.87;;;1.80;;
68680;SDS011;55836;49.858;6.756;2023-04-15T02:13:07;3.80;;;1.87;;
68680;SDS011;55836;49.858;6.756;2023-04-15T02:15:34;4.33;;;2.23;;
68680;SDS011;55836;49.858;6.756;2023-04-15T02:18:01;3.30;;;1.77;;
68680;SDS011;55836;49.858;6.756;2023-04-15T02:20:27;4.70;;;1.50;;
68680;SDS011;55836;49.858;6.756;2023-04-15T02:22:54;3.23;;;1.70;;
68680;SDS011;55836;49.858;6.756;2023-04-15T02:25:21;3.00;;;1.60;;
68680;SDS011;55836;49.858;6.756;2023-04-15T02:27:47;3.20;;;1.63;;
68680;SDS011;55836;49.858;6.756;2023-04-15T02:30:13;3.60;;;1.70;;
68680;SDS011;55836;49.858;6.756;2023-04-15T02:32:39;4.30;;;2.27;;
68680;SDS011;55836;49.858;6.756;2023-04-15T02:35:08;5.07;;;2.23;;
68680;SDS011;55836;49.858;6.756;2023-04-15T02:37:35;6.93;;;2.37;;
68680;SDS011;55836;49.858;6.756;2023-04-15T02:40:07;3.33;;;2.30;;
68680;SDS011;55836;49.858;6.756;2023-04-15T02:42:40;5.90;;;2.33;;
68680;SDS011;55836;49.858;6.756;2023-04-15T02:45:07;3.63;;;1.70;;
68680;SDS011;55836;49.858;6.756;2023-04-15T02:47:33;6.67;;;1.90;;
68680;SDS011;55836;49.858;6.756;2023-04-15T02:50:00;2.40;;;1.50;;
68680;SDS011;55836;49.858;6.756;2023-04-15T02:52:26;4.93;;;1.50;;
68680;SDS011;55836;49.858;6.756;2023-04-15T02:54:52;2.93;;;2.00;;
68680;SDS011;55836;49.858;6.756;2023-04-15T02:57:24;5.83;;;2.40;;
68680;SDS011;55836;49.858;6.756;2023-04-15T02:59:50;2.63;;;2.10;;
68680;SDS011;55836;49.858;6.756;2023-04-15T03:02:16;2.67;;;1.70;;
68680;SDS011;55836;49.858;6.756;2023-04-15T03:04:42;2.43;;;1.70;;
68680;SDS011;55836;49.858;6.756;2023-04-15T03:07:08;4.40;;;1.90;;
68680;SDS011;55836;49.858;6.756;2023-04-15T03:09:34;2.03;;;1.83;;
68680;SDS011;55836;49.858;6.756;2023-04-15T03:12:00;2.77;;;1.90;;
68680;SDS011;55836;49.858;6.756;2023-04-15T03:14:26;2.90;;;1.60;;
68680;SDS011;55836;49.858;6.756;2023-04-15T03:16:52;7.63;;;2.30;;
68680;SDS011;55836;49.858;6.756;2023-04-15T03:19:18;3.27;;;2.20;;
68680;SDS011;55836;49.858;6.756;2023-04-15T03:21:44;4.43;;;2.93;;
68680;SDS011;55836;49.858;6.756;2023-04-15T03:24:10;6.30;;;3.40;;
68680;SDS011;55836;49.858;6.756;2023-04-15T03:26:36;8.13;;;5.00;;
68680;SDS011;55836;49.858;6.756;2023-04-15T03:29:03;4.67;;;3.07;;
68680;SDS011;55836;49.858;6.756;2023-04-15T03:31:28;7.87;;;3.17;;
68680;SDS011;55836;49.858;6.756;2023-04-15T03:33:55;4.33;;;2.97;;
68680;SDS011;55836;49.858;6.756;2023-04-15T03:36:21;6.17;;;2.30;;
68680;SDS011;55836;49.858;6.756;2023-04-15T03:38:47;4.87;;;3.13;;
68680;SDS011;55836;49.858;6.756;2023-04-15T03:41:14;7.63;;;2.60;;
68680;SDS011;55836;49.858;6.756;2023-04-15T03:43:40;6.80;;;2.47;;
68680;SDS011;55836;49.858;6.756;2023-04-15T03:46:06;5.37;;;3.00;;
68680;SDS011;55836;49.858;6.756;2023-04-15T03:48:32;4.47;;;2.70;;
68680;SDS011;55836;49.858;6.756;2023-04-15T03:50:58;4.07;;;2.20;;
68680;SDS011;55836;49.858;6.756;2023-04-15T03:53:24;4.13;;;1.70;;
68680;SDS011;55836;49.858;6.756;2023-04-15T03:55:50;7.27;;;2.27;;
68680;SDS011;55836;49.858;6.756;2023-04-15T03:58:16;6.00;;;1.90;;
68680;SDS011;55836;49.858;6.756;2023-04-15T04:00:42;2.80;;;1.60;;
68680;SDS011;55836;49.858;6.756;2023-04-15T04:03:08;5.93;;;1.80;;
68680;SDS011;55836;49.858;6.756;2023-04-15T04:05:35;3.73;;;2.17;;
68680;SDS011;55836;49.858;6.756;2023-04-15T04:08:03;2.83;;;1.70;;
68680;SDS011;55836;49.858;6.756;2023-04-15T04:10:29;4.67;;;1.83;;
68680;SDS011;55836;49.858;6.756;2023-04-15T04:12:55;3.53;;;1.73;;
68680;SDS011;55836;49.858;6.756;2023-04-15T04:15:21;2.67;;;1.80;;
68680;SDS011;55836;49.858;6.756;2023-04-15T04:17:47;3.60;;;1.57;;
68680;SDS011;55836;49.858;6.756;2023-04-15T04:20:13;2.87;;;1.60;;
68680;SDS011;55836;49.858;6.756;2023-04-15T04:22:39;3.90;;;1.90;;
68680;SDS011;55836;49.858;6.756;2023-04-15T04:25:05;6.20;;;2.27;;
68680;SDS011;55836;49.858;6.756;2023-04-15T04:27:32;2.93;;;1.90;;
68680;SDS011;55836;49.858;6.756;2023-04-15T04:29:58;4.50;;;1.87;;
68680;SDS011;55836;49.858;6.756;2023-04-15T04:32:24;3.03;;;1.83;;
68680;SDS011;55836;49.858;6.756;2023-04-15T04:34:50;5.50;;;1.80;;
68680;SDS011;55836;49.858;6.756;2023-04-15T04:37:16;2.23;;;1.80;;
68680;SDS011;55836;49.858;6.756;2023-04-15T04:39:43;3.43;;;1.80;;
68680;SDS011;55836;49.858;6.756;2023-04-15T04:42:09;5.13;;;2.20;;
68680;SDS011;55836;49.858;6.756;2023-04-15T04:44:35;2.43;;;1.53;;
68680;SDS011;55836;49.858;6.756;2023-04-15T04:47:01;4.43;;;2.20;;
68680;SDS011;55836;49.858;6.756;2023-04-15T04:49:27;3.13;;;1.90;;
68680;SDS011;55836;49.858;6.756;2023-04-15T04:51:53;4.97;;;1.90;;
68680;SDS011;55836;49.858;6.756;2023-04-15T04:54:19;4.80;;;1.90;;
68680;SDS011;55836;49.858;6.756;2023-04-15T04:56:45;3.30;;;2.17;;
68680;SDS011;55836;49.858;6.756;2023-04-15T04:59:11;5.23;;;2.00;;
68680;SDS011;55836;49.858;6.756;2023-04-15T05:01:37;6.90;;;2.47;;
68680;SDS011;55836;49.858;6.756;2023-04-15T05:04:04;5.20;;;2.53;;
68680;SDS011;55836;49.858;6.756;2023-04-15T05:06:31;3.40;;;2.40;;
68680;SDS011;55836;49.858;6.756;2023-04-15T05:08:57;5.87;;;2.30;;
68680;SDS011;55836;49.858;6.756;2023-04-15T05:11:23;3.57;;;2.23;;
68680;SDS011;55836;49.858;6.756;2023-04-15T05:13:50;4.80;;;2.23;;
68680;SDS011;55836;49.858;6.756;2023-04-15T05:16:16;4.73;;;2.20;;
68680;SDS011;55836;49.858;6.756;2023-04-15T05:18:42;5.67;;;2.47;;
68680;SDS011;55836;49.858;6.756;2023-04-15T05:21:08;2.57;;;2.30;;
68680;SDS011;55836;49.858;6.756;2023-04-15T05:23:34;4.03;;;1.87;;
68680;SDS011;55836;49.858;6.756;2023-04-15T05:26:00;5.30;;;2.10;;
68680;SDS011;55836;49.858;6.756;2023-04-15T05:28:26;4.30;;;2.03;;
68680;SDS011;55836;49.858;6.756;2023-04-15T05:30:52;3.03;;;2.43;;
68680;SDS011;55836;49.858;6.756;2023-04-15T05:33:18;3.60;;;2.50;;
68680;SDS011;55836;49.858;6.756;2023-04-15T05:35:44;4.83;;;2.50;;
68680;SDS011;55836;49.858;6.756;2023-04-15T05:38:10;3.83;;;2.80;;
68680;SDS011;55836;49.858;6.756;2023-04-15T05:40:36;4.57;;;2.70;;
68680;SDS011;55836;49.858;6.756;2023-04-15T05:43:02;3.07;;;2.10;;
68680;SDS011;55836;49.858;6.756;2023-04-15T05:45:28;5.33;;;2.80;;
68680;SDS011;55836;49.858;6.756;2023-04-15T05:47:54;2.60;;;2.00;;
68680;SDS011;55836;49.858;6.756;2023-04-15T05:50:21;4.37;;;2.50;;
68680;SDS011;55836;49.858;6.756;2023-04-15T05:52:47;4.90;;;2.77;;
68680;SDS011;55836;49.858;6.756;2023-04-15T05:55:13;3.47;;;2.53;;
68680;SDS011;55836;49.858;6.756;2023-04-15T05:57:39;5.60;;;3.13;;
68680;SDS011;55836;49.858;6.756;2023-04-15T06:00:05;5.30;;;2.73;;
68680;SDS011;55836;49.858;6.756;2023-04-15T06:02:31;3.73;;;2.80;;
68680;SDS011;55836;49.858;6.756;2023-04-15T06:04:57;3.83;;;2.23;;
68680;SDS011;55836;49.858;6.756;2023-04-15T06:07:24;6.13;;;2.93;;
68680;SDS011;55836;49.858;6.756;2023-04-15T06:09:50;5.03;;;3.33;;
68680;SDS011;55836;49.858;6.756;2023-04-15T06:12:16;5.20;;;3.07;;
68680;SDS011;55836;49.858;6.756;2023-04-15T06:14:42;4.17;;;2.90;;
68680;SDS011;55836;49.858;6.756;2023-04-15T06:17:08;4.83;;;2.90;;
68680;SDS011;55836;49.858;6.756;2023-04-15T06:19:34;5.73;;;3.13;;
68680;SDS011;55836;49.858;6.756;2023-04-15T06:22:01;5.53;;;3.17;;
68680;SDS011;55836;49.858;6.756;2023-04-15T06:24:27;7.17;;;3.80;;
68680;SDS011;55836;49.858;6.756;2023-04-15T06:26:53;4.37;;;3.00;;
68680;SDS011;55836;49.858;6.756;2023-04-15T06:29:20;6.40;;;3.27;;
68680;SDS011;55836;49.858;6.756;2023-04-15T06:31:46;5.40;;;3.10;;
68680;SDS011;55836;49.858;6.756;2023-04-15T06:34:13;5.23;;;3.40;;
68680;SDS011;55836;49.858;6.756;2023-04-15T06:36:39;4.93;;;2.87;;
68680;SDS011;55836;49.858;6.756;2023-04-15T06:39:05;10.73;;;3.40;;
68680;SDS011;55836;49.858;6.756;2023-04-15T06:41:31;3.93;;;2.80;;
68680;SDS011;55836;49.858;6.756;2023-04-15T06:43:57;3.80;;;2.70;;
68680;SDS011;55836;49.858;6.756;2023-04-15T06:46:24;5.20;;;3.50;;
68680;SDS011;55836;49.858;6.756;2023-04-15T06:48:50;6.23;;;2.80;;
68680;SDS011;55836;49.858;6.756;2023-04-15T06:51:16;4.20;;;2.80;;
68680;SDS011;55836;49.858;6.756;2023-04-15T06:53:42;7.90;;;3.20;;
68680;SDS011;55836;49.858;6.756;2023-04-15T06:56:08;6.20;;;3.13;;
68680;SDS011;55836;49.858;6.756;2023-04-15T06:58:34;9.67;;;7.03;;
68680;SDS011;55836;49.858;6.756;2023-04-15T07:01:00;5.00;;;3.23;;
68680;SDS011;55836;49.858;6.756;2023-04-15T07:03:27;5.13;;;3.27;;
68680;SDS011;55836;49.858;6.756;2023-04-15T07:05:53;7.97;;;3.17;;
68680;SDS011;55836;49.858;6.756;2023-04-15T07:08:19;5.90;;;3.20;;
68680;SDS011;55836;49.858;6.756;2023-04-15T07:10:45;6.67;;;3.00;;
68680;SDS011;55836;49.858;6.756;2023-04-15T07:13:11;6.00;;;3.00;;
68680;SDS011;55836;49.858;6.756;2023-04-15T07:15:38;5.50;;;2.97;;
68680;SDS011;55836;49.858;6.756;2023-04-15T07:18:04;4.27;;;3.80;;
68680;SDS011;55836;49.858;6.756;2023-04-15T07:20:30;4.43;;;2.63;;
68680;SDS011;55836;49.858;6.756;2023-04-15T07:22:56;6.33;;;2.70;;
68680;SDS011;55836;49.858;6.756;2023-04-15T07:25:23;3.63;;;2.83;;
68680;SDS011;55836;49.858;6.756;2023-04-15T07:27:49;4.93;;;2.93;;
68680;SDS011;55836;49.858;6.756;2023-04-15T07:30:15;4.30;;;3.10;;
68680;SDS011;55836;49.858;6.756;2023-04-15T07:32:41;6.27;;;2.90;;
68680;SDS011;55836;49.858;6.756;2023-04-15T07:35:08;6.30;;;3.13;;
68680;SDS011;55836;49.858;6.756;2023-04-15T07:37:34;4.13;;;3.13;;
68680;SDS011;55836;49.858;6.756;2023-04-15T07:40:01;6.37;;;3.20;;
68680;SDS011;55836;49.858;6.756;2023-04-15T07:42:31;6.57;;;3.33;;
68680;SDS011;55836;49.858;6.756;2023-04-15T07:44:57;5.87;;;3.03;;
68680;SDS011;55836;49.858;6.756;2023-04-15T07:47:23;4.80;;;3.27;;
68680;SDS011;55836;49.858;6.756;2023-04-15T07:49:49;8.47;;;2.90;;
68680;SDS011;55836;49.858;6.756;2023-04-15T07:52:15;6.60;;;2.60;;
68680;SDS011;55836;49.858;6.756;2023-04-15T07:54:41;6.77;;;2.90;;
68680;SDS011;55836;49.858;6.756;2023-04-15T07:57:07;7.57;;;3.30;;
68680;SDS011;55836;49.858;6.756;2023-04-15T07:59:33;6.87;;;3.40;;
68680;SDS011;55836;49.858;6.756;2023-04-15T08:02:00;9.10;;;2.93;;
68680;SDS011;55836;49.858;6.756;2023-04-15T08:04:26;5.13;;;2.60;;
68680;SDS011;55836;49.858;6.756;2023-04-15T08:06:52;4.30;;;2.30;;
68680;SDS011;55836;49.858;6.756;2023-04-15T08:09:18;5.43;;;3.20;;
68680;SDS011;55836;49.858;6.756;2023-04-15T08:11:47;4.87;;;2.90;;
68680;SDS011;55836;49.858;6.756;2023-04-15T08:14:13;7.67;;;2.60;;
68680;SDS011;55836;49.858;6.756;2023-04-15T08:16:39;6.33;;;2.40;;
68680;SDS011;55836;49.858;6.756;2023-04-15T08:19:05;5.80;;;2.63;;
68680;SDS011;55836;49.858;6.756;2023-04-15T08:21:31;6.63;;;2.63;;
68680;SDS011;55836;49.858;6.756;2023-04-15T08:23:58;5.30;;;2.30;;
68680;SDS011;55836;49.858;6.756;2023-04-15T08:26:25;6.10;;;2.53;;
68680;SDS011;55836;49.858;6.756;2023-04-15T08:28:51;3.33;;;2.20;;
68680;SDS011;55836;49.858;6.756;2023-04-15T08:31:17;4.77;;;2.23;;
68680;SDS011;55836;49.858;6.756;2023-04-15T08:33:43;5.80;;;2.43;;
68680;SDS011;55836;49.858;6.756;2023-04-15T08:36:10;5.77;;;2.37;;
68680;SDS011;55836;49.858;6.756;2023-04-15T08:38:37;5.67;;;2.63;;
68680;SDS011;55836;49.858;6.756;2023-04-15T08:41:10;6.50;;;2.53;;
68680;SDS011;55836;49.858;6.756;2023-04-15T08:43:41;2.90;;;2.17;;
68680;SDS011;55836;49.858;6.756;2023-04-15T08:46:07;5.70;;;1.83;;
68680;SDS011;55836;49.858;6.756;2023-04-15T08:48:34;4.50;;;2.50;;
68680;SDS011;55836;49.858;6.756;2023-04-15T08:51:05;6.03;;;2.33;;
68680;SDS011;55836;49.858;6.756;2023-04-15T08:53:31;3.30;;;1.93;;
68680;SDS011;55836;49.858;6.756;2023-04-15T08:55:57;5.90;;;2.20;;
68680;SDS011;55836;49.858;6.756;2023-04-15T08:58:25;6.37;;;2.47;;
68680;SDS011;55836;49.858;6.756;2023-04-15T09:00:51;5.10;;;2.40;;
68680;SDS011;55836;49.858;6.756;2023-04-15T09:03:17;4.87;;;2.77;;
68680;SDS011;55836;49.858;6.756;2023-04-15T09:05:43;4.10;;;2.30;;
68680;SDS011;55836;49.858;6.756;2023-04-15T09:08:10;7.07;;;2.47;;
68680;SDS011;55836;49.858;6.756;2023-04-15T09:10:37;6.67;;;1.90;;
68680;SDS011;55836;49.858;6.756;2023-04-15T09:13:03;4.33;;;1.80;;
68680;SDS011;55836;49.858;6.756;2023-04-15T09:15:29;3.23;;;1.63;;
68680;SDS011;55836;49.858;6.756;2023-04-15T09:17:57;6.67;;;2.03;;
68680;SDS011;55836;49.858;6.756;2023-04-15T09:20:23;4.00;;;1.97;;
68680;SDS011;55836;49.858;6.756;2023-04-15T09:22:49;4.30;;;1.90;;
68680;SDS011;55836;49.858;6.756;2023-04-15T09:27:49;4.73;;;1.90;;
68680;SDS011;55836;49.858;6.756;2023-04-15T09:30:15;2.67;;;1.80;;
68680;SDS011;55836;49.858;6.756;2023-04-15T09:32:54;5.17;;;1.77;;
68680;SDS011;55836;49.858;6.756;2023-04-15T09:35:21;2.60;;;1.70;;
68680;SDS011;55836;49.858;6.756;2023-04-15T09:37:50;5.03;;;1.80;;
68680;SDS011;55836;49.858;6.756;2023-04-15T09:40:36;7.17;;;1.83;;
68680;SDS011;55836;49.858;6.756;2023-04-15T09:43:03;6.60;;;2.97;;
68680;SDS011;55836;49.858;6.756;2023-04-15T09:45:30;5.73;;;1.80;;
68680;SDS011;55836;49.858;6.756;2023-04-15T09:47:56;4.27;;;1.70;;
68680;SDS011;55836;49.858;6.756;2023-04-15T09:50:25;5.50;;;2.10;;
68680;SDS011;55836;49.858;6.756;2023-04-15T09:52:52;3.17;;;1.93;;
68680;SDS011;55836;49.858;6.756;2023-04-15T09:55:18;3.00;;;1.70;;
68680;SDS011;55836;49.858;6.756;2023-04-15T09:57:44;3.47;;;1.60;;
68680;SDS011;55836;49.858;6.756;2023-04-15T10:00:13;5.33;;;1.80;;
68680;SDS011;55836;49.858;6.756;2023-04-15T10:02:40;3.93;;;1.97;;
68680;SDS011;55836;49.858;6.756;2023-04-15T10:05:06;5.73;;;2.23;;
68680;SDS011;55836;49.858;6.756;2023-04-15T10:07:33;4.43;;;2.03;;
68680;SDS011;55836;49.858;6.756;2023-04-15T10:10:00;5.97;;;1.93;;
68680;SDS011;55836;49.858;6.756;2023-04-15T10:12:26;3.97;;;1.80;;
68680;SDS011;55836;49.858;6.756;2023-04-15T10:14:57;2.83;;;1.43;;
68680;SDS011;55836;49.858;6.756;2023-04-15T10:17:23;2.13;;;1.63;;
68680;SDS011;55836;49.858;6.756;2023-04-15T10:19:52;3.53;;;1.30;;
68680;SDS011;55836;49.858;6.756;2023-04-15T10:22:19;3.33;;;1.23;;
68680;SDS011;55836;49.858;6.756;2023-04-15T10:24:46;3.10;;;1.53;;
68680;SDS011;55836;49.858;6.756;2023-04-15T10:27:16;8.47;;;1.77;;
68680;SDS011;55836;49.858;6.756;2023-04-15T10:29:42;1.90;;;1.13;;
68680;SDS011;55836;49.858;6.756;2023-04-15T10:32:09;11.53;;;1.67;;
68680;SDS011;55836;49.858;6.756;2023-04-15T10:34:35;5.73;;;1.67;;
68680;SDS011;55836;49.858;6.756;2023-04-15T10:37:02;4.33;;;1.93;;
68680;SDS011;55836;49.858;6.756;2023-04-15T10:42:11;4.13;;;1.60;;
68680;SDS011;55836;49.858;6.756;2023-04-15T10:44:38;3.93;;;1.80;;
68680;SDS011;55836;49.858;6.756;2023-04-15T10:47:14;4.97;;;1.90;;
68680;SDS011;55836;49.858;6.756;2023-04-15T10:49:57;4.30;;;1.83;;
68680;SDS011;55836;49.858;6.756;2023-04-15T10:52:24;7.37;;;2.13;;
68680;SDS011;55836;49.858;6.756;2023-04-15T10:55:51;4.33;;;2.20;;
68680;SDS011;55836;49.858;6.756;2023-04-15T10:57:50;3.20;;;1.60;;
68680;SDS011;55836;49.858;6.756;2023-04-15T11:00:17;3.10;;;1.93;;
68680;SDS011;55836;49.858;6.756;2023-04-15T11:05:10;4.10;;;2.43;;
68680;SDS011;55836;49.858;6.756;2023-04-15T11:12:43;6.50;;;2.80;;
68680;SDS011;55836;49.858;6.756;2023-04-15T11:17:57;5.90;;;2.43;;
68680;SDS011;55836;49.858;6.756;2023-04-15T11:20:23;4.27;;;2.10;;
68680;SDS011;55836;49.858;6.756;2023-04-15T11:22:50;4.83;;;2.37;;
68680;SDS011;55836;49.858;6.756;2023-04-15T11:25:26;3.17;;;2.00;;
68680;SDS011;55836;49.858;6.756;2023-04-15T11:27:53;5.80;;;2.13;;
68680;SDS011;55836;49.858;6.756;2023-04-15T11:30:23;2.77;;;1.87;;
68680;SDS011;55836;49.858;6.756;2023-04-15T11:32:50;3.60;;;1.93;;
68680;SDS011;55836;49.858;6.756;2023-04-15T11:35:17;3.20;;;2.00;;
68680;SDS011;55836;49.858;6.756;2023-04-15T11:37:46;3.13;;;1.93;;
68680;SDS011;55836;49.858;6.756;2023-04-15T11:40:13;3.53;;;1.73;;
68680;SDS011;55836;49.858;6.756;2023-04-15T11:42:41;4.50;;;2.10;;
68680;SDS011;55836;49.858;6.756;2023-04-15T11:45:11;3.90;;;1.90;;
68680;SDS011;55836;49.858;6.756;2023-04-15T11:47:38;2.20;;;1.50;;
68680;SDS011;55836;49.858;6.756;2023-04-15T11:50:22;3.47;;;1.83;;
68680;SDS011;55836;49.858;6.756;2023-04-15T11:52:55;3.37;;;1.70;;
68680;SDS011;55836;49.858;6.756;2023-04-15T11:55:22;2.90;;;1.90;;
68680;SDS011;55836;49.858;6.756;2023-04-15T12:00:33;3.90;;;1.80;;
68680;SDS011;55836;49.858;6.756;2023-04-15T12:08:47;1.97;;;1.37;;
68680;SDS011;55836;49.858;6.756;2023-04-15T12:11:16;3.00;;;1.33;;
68680;SDS011;55836;49.858;6.756;2023-04-15T12:13:46;1.40;;;1.30;;
68680;SDS011;55836;49.858;6.756;2023-04-15T12:16:12;2.53;;;1.30;;
68680;SDS011;55836;49.858;6.756;2023-04-15T12:18:41;2.10;;;1.43;;
68680;SDS011;55836;49.858;6.756;2023-04-15T12:21:09;5.20;;;1.77;;
68680;SDS011;55836;49.858;6.756;2023-04-15T12:23:48;3.93;;;1.50;;
68680;SDS011;55836;49.858;6.756;2023-04-15T12:26:14;1.47;;;1.30;;
68680;SDS011;55836;49.858;6.756;2023-04-15T12:28:41;2.93;;;2.30;;
68680;SDS011;55836;49.858;6.756;2023-04-15T12:31:10;2.60;;;1.80;;
68680;SDS011;55836;49.858;6.756;2023-04-15T12:33:37;2.57;;;1.43;;
68680;SDS011;55836;49.858;6.756;2023-04-15T12:36:04;5.10;;;2.20;;
68680;SDS011;55836;49.858;6.756;2023-04-15T12:38:30;2.17;;;1.70;;
68680;SDS011;55836;49.858;6.756;2023-04-15T12:40:59;3.33;;;1.90;;
68680;SDS011;55836;49.858;6.756;2023-04-15T12:43:25;3.57;;;2.33;;
68680;SDS011;55836;49.858;6.756;2023-04-15T12:45:51;1.97;;;1.80;;
68680;SDS011;55836;49.858;6.756;2023-04-15T12:48:17;3.33;;;1.87;;
68680;SDS011;55836;49.858;6.756;2023-04-15T12:50:43;3.00;;;1.90;;
68680;SDS011;55836;49.858;6.756;2023-04-15T12:53:09;2.57;;;2.10;;
68680;SDS011;55836;49.858;6.756;2023-04-15T12:55:35;3.33;;;2.00;;
68680;SDS011;55836;49.858;6.756;2023-04-15T12:58:01;5.33;;;2.77;;
68680;SDS011;55836;49.858;6.756;2023-04-15T13:00:27;3.87;;;2.37;;
68680;SDS011;55836;49.858;6.756;2023-04-15T13:02:54;4.80;;;2.37;;
68680;SDS011;55836;49.858;6.756;2023-04-15T13:05:20;3.90;;;1.93;;
68680;SDS011;55836;49.858;6.756;2023-04-15T13:07:46;3.13;;;2.70;;
68680;SDS011;55836;49.858;6.756;2023-04-15T13:10:12;4.83;;;2.80;;
68680;SDS011;55836;49.858;6.756;2023-04-15T13:12:38;4.10;;;2.90;;
68680;SDS011;55836;49.858;6.756;2023-04-15T13:15:05;3.57;;;2.70;;
68680;SDS011;55836;49.858;6.756;2023-04-15T13:17:33;3.17;;;2.73;;
68680;SDS011;55836;49.858;6.756;2023-04-15T13:19:59;3.60;;;2.60;;
68680;SDS011;55836;49.858;6.756;2023-04-15T13:22:25;4.20;;;2.30;;
68680;SDS011;55836;49.858;6.756;2023-04-15T13:24:51;2.93;;;2.10;;
68680;SDS011;55836;49.858;6.756;2023-04-15T13:27:17;3.00;;;2.50;;
68680;SDS011;55836;49.858;6.756;2023-04-15T13:29:43;4.07;;;2.70;;
68680;SDS011;55836;49.858;6.756;2023-04-15T13:32:09;3.50;;;2.37;;
68680;SDS011;55836;49.858;6.756;2023-04-15T13:34:36;3.33;;;2.23;;
68680;SDS011;55836;49.858;6.756;2023-04-15T13:37:06;3.47;;;2.40;;
68680;SDS011;55836;49.858;6.756;2023-04-15T13:39:32;4.03;;;1.90;;
68680;SDS011;55836;49.858;6.756;2023-04-15T13:41:58;2.23;;;1.87;;
68680;SDS011;55836;49.858;6.756;2023-04-15T13:44:24;2.37;;;1.60;;
68680;SDS011;55836;49.858;6.756;2023-04-15T13:46:51;2.27;;;1.33;;
68680;SDS011;55836;49.858;6.756;2023-04-15T13:49:17;2.10;;;1.30;;
68680;SDS011;55836;49.858;6.756;2023-04-15T13:51:43;2.43;;;1.30;;
68680;SDS011;55836;49.858;6.756;2023-04-15T13:54:09;3.33;;;1.90;;
68680;SDS011;55836;49.858;6.756;2023-04-15T13:56:35;3.47;;;1.80;;
68680;SDS011;55836;49.858;6.756;2023-04-15T13:59:01;2.40;;;2.03;;
68680;SDS011;55836;49.858;6.756;2023-04-15T14:01:27;2.10;;;1.90;;
68680;SDS011;55836;49.858;6.756;2023-04-15T14:03:53;2.60;;;2.40;;
68680;SDS011;55836;49.858;6.756;2023-04-15T14:06:20;3.77;;;2.10;;
68680;SDS011;55836;49.858;6.756;2023-04-15T14:08:46;2.10;;;2.00;;
68680;SDS011;55836;49.858;6.756;2023-04-15T14:11:12;2.23;;;2.03;;
68680;SDS011;55836;49.858;6.756;2023-04-15T14:13:38;3.60;;;2.30;;
68680;SDS011;55836;49.858;6.756;2023-04-15T14:16:07;3.47;;;2.60;;
68680;SDS011;55836;49.858;6.756;2023-04-15T14:18:33;3.77;;;2.80;;
68680;SDS011;55836;49.858;6.756;2023-04-15T14:20:59;3.70;;;3.00;;
68680;SDS011;55836;49.858;6.756;2023-04-15T14:23:25;2.77;;;2.37;;
68680;SDS011;55836;49.858;6.756;2023-04-15T14:25:51;3.47;;;2.63;;
68680;SDS011;55836;49.858;6.756;2023-04-15T14:28:17;2.60;;;2.40;;
68680;SDS011;55836;49.858;6.756;2023-04-15T14:30:43;3.80;;;2.40;;
68680;SDS011;55836;49.858;6.756;2023-04-15T14:33:10;3.73;;;1.90;;
68680;SDS011;55836;49.858;6.756;2023-04-15T14:35:36;2.60;;;2.30;;
68680;SDS011;55836;49.858;6.756;2023-04-15T14:38:02;2.70;;;2.23;;
68680;SDS011;55836;49.858;6.756;2023-04-15T14:40:29;4.73;;;2.27;;
68680;SDS011;55836;49.858;6.756;2023-04-15T14:42:55;4.10;;;2.20;;
68680;SDS011;55836;49.858;6.756;2023-04-15T14:45:21;2.50;;;2.30;;
68680;SDS011;55836;49.858;6.756;2023-04-15T14:47:47;3.17;;;2.97;;
68680;SDS011;55836;49.858;6.756;2023-04-15T14:50:13;5.33;;;4.10;;
68680;SDS011;55836;49.858;6.756;2023-04-15T14:52:40;4.53;;;4.17;;
68680;SDS011;55836;49.858;6.756;2023-04-15T14:55:06;4.67;;;4.27;;
68680;SDS011;55836;49.858;6.756;2023-04-15T14:57:34;4.67;;;4.27;;
68680;SDS011;55836;49.858;6.756;2023-04-15T15:00:00;5.83;;;5.27;;
68680;SDS011;55836;49.858;6.756;2023-04-15T15:02:28;4.60;;;4.30;;
68680;SDS011;55836;49.858;6.756;2023-04-15T15:04:54;5.13;;;4.63;;
68680;SDS011;55836;49.858;6.756;2023-04-15T15:07:21;5.60;;;5.17;;
68680;SDS011;55836;49.858;6.756;2023-04-15T15:09:47;5.97;;;5.57;;